sensor_id;sensor_type;location;lat;lon;timestamp;P1;durP1;ratioP1;P2;durP2;ratioP2
23384;SDS011;11865;45.394;10.978;2023-05-10T00:01:55;10.50;;;6.35;;
23384;SDS011;11865;45.394;10.978;2023-05-10T00:04:22;8.68;;;6.90;;
23384;SDS011;11865;45.394;10.978;2023-05-10T00:06:54;7.28;;;6.15;;
23384;SDS011;11865;45.394;10.978;2023-05-10T00:09:21;10.18;;;6.30;;
23384;SDS011;11865;45.394;10.978;2023-05-10T00:11:49;8.15;;;6.43;;
23384;SDS011;11865;45.394;10.978;2023-05-10T00:14:16;10.93;;;6.97;;
23384;SDS011;11865;45.394;10.978;2023-05-10T00:16:44;11.45;;;7.75;;
23384;SDS011;11865;45.394;10.978;2023-05-10T00:19:12;9.63;;;6.90;;
23384;SDS011;11865;45.394;10.978;2023-05-10T00:21:39;14.05;;;7.28;;
23384;SDS011;11865;45.394;10.978;2023-05-10T00:24:07;11.27;;;6.70;;
23384;SDS011;11865;45.394;10.978;2023-05-10T00:26:34;10.20;;;6.10;;
23384;SDS011;11865;45.394;10.978;2023-05-10T00:29:02;8.55;;;5.32;;
23384;SDS011;11865;45.394;10.978;2023-05-10T00:31:30;6.80;;;5.28;;
23384;SDS011;11865;45.394;10.978;2023-05-10T00:33:57;7.35;;;4.45;;
23384;SDS011;11865;45.394;10.978;2023-05-10T00:36:24;8.07;;;4.90;;
23384;SDS011;11865;45.394;10.978;2023-05-10T00:38:53;6.07;;;4.70;;
23384;SDS011;11865;45.394;10.978;2023-05-10T00:41:20;5.78;;;4.43;;
23384;SDS011;11865;45.394;10.978;2023-05-10T00:43:49;6.68;;;4.15;;
23384;SDS011;11865;45.394;10.978;2023-05-10T00:46:17;7.32;;;3.97;;
23384;SDS011;11865;45.394;10.978;2023-05-10T00:48:45;5.70;;;3.97;;
23384;SDS011;11865;45.394;10.978;2023-05-10T00:51:13;5.32;;;3.90;;
23384;SDS011;11865;45.394;10.978;2023-05-10T00:53:40;4.93;;;3.50;;
23384;SDS011;11865;45.394;10.978;2023-05-10T00:56:08;4.57;;;3.58;;
23384;SDS011;11865;45.394;10.978;2023-05-10T00:58:35;7.35;;;3.80;;
23384;SDS011;11865;45.394;10.978;2023-05-10T01:01:04;5.47;;;3.88;;
23384;SDS011;11865;45.394;10.978;2023-05-10T01:03:32;5.50;;;3.33;;
23384;SDS011;11865;45.394;10.978;2023-05-10T01:06:00;5.00;;;3.42;;
23384;SDS011;11865;45.394;10.978;2023-05-10T01:08:27;5.60;;;3.67;;
23384;SDS011;11865;45.394;10.978;2023-05-10T01:10:55;4.45;;;2.97;;
23384;SDS011;11865;45.394;10.978;2023-05-10T01:13:29;5.60;;;3.50;;
23384;SDS011;11865;45.394;10.978;2023-05-10T01:16:03;4.03;;;3.15;;
23384;SDS011;11865;45.394;10.978;2023-05-10T01:18:40;4.55;;;3.10;;
23384;SDS011;11865;45.394;10.978;2023-05-10T01:21:17;5.28;;;2.95;;
23384;SDS011;11865;45.394;10.978;2023-05-10T01:34:35;4.57;;;3.10;;
23384;SDS011;11865;45.394;10.978;2023-05-10T01:37:13;3.65;;;2.60;;
23384;SDS011;11865;45.394;10.978;2023-05-10T01:42:36;6.93;;;2.90;;
23384;SDS011;11865;45.394;10.978;2023-05-10T01:45:24;4.03;;;2.80;;
23384;SDS011;11865;45.394;10.978;2023-05-10T01:48:01;3.30;;;2.47;;
23384;SDS011;11865;45.394;10.978;2023-05-10T01:50:34;4.95;;;3.13;;
23384;SDS011;11865;45.394;10.978;2023-05-10T01:53:06;3.55;;;2.55;;
23384;SDS011;11865;45.394;10.978;2023-05-10T01:55:43;5.90;;;2.90;;
23384;SDS011;11865;45.394;10.978;2023-05-10T01:58:14;5.57;;;2.80;;
23384;SDS011;11865;45.394;10.978;2023-05-10T02:00:46;6.03;;;2.75;;
23384;SDS011;11865;45.394;10.978;2023-05-10T02:03:16;3.90;;;3.30;;
23384;SDS011;11865;45.394;10.978;2023-05-10T02:05:48;3.83;;;2.83;;
23384;SDS011;11865;45.394;10.978;2023-05-10T02:08:17;4.45;;;2.65;;
23384;SDS011;11865;45.394;10.978;2023-05-10T02:10:46;4.00;;;3.17;;
23384;SDS011;11865;45.394;10.978;2023-05-10T02:13:14;3.83;;;2.78;;
23384;SDS011;11865;45.394;10.978;2023-05-10T02:15:43;8.02;;;3.28;;
23384;SDS011;11865;45.394;10.978;2023-05-10T02:18:14;6.80;;;2.92;;
23384;SDS011;11865;45.394;10.978;2023-05-10T02:20:44;5.53;;;3.75;;
23384;SDS011;11865;45.394;10.978;2023-05-10T02:23:15;4.93;;;3.70;;
23384;SDS011;11865;45.394;10.978;2023-05-10T02:25:44;4.78;;;3.63;;
23384;SDS011;11865;45.394;10.978;2023-05-10T02:28:13;6.68;;;4.00;;
23384;SDS011;11865;45.394;10.978;2023-05-10T02:30:41;4.70;;;3.50;;
23384;SDS011;11865;45.394;10.978;2023-05-10T02:33:10;7.38;;;3.58;;
23384;SDS011;11865;45.394;10.978;2023-05-10T02:35:38;5.97;;;3.55;;
23384;SDS011;11865;45.394;10.978;2023-05-10T02:38:08;6.65;;;3.90;;
23384;SDS011;11865;45.394;10.978;2023-05-10T02:40:36;6.45;;;3.85;;
23384;SDS011;11865;45.394;10.978;2023-05-10T02:43:05;6.47;;;3.83;;
23384;SDS011;11865;45.394;10.978;2023-05-10T02:45:35;9.57;;;4.57;;
23384;SDS011;11865;45.394;10.978;2023-05-10T02:48:05;5.57;;;4.22;;
23384;SDS011;11865;45.394;10.978;2023-05-10T02:50:33;6.22;;;4.38;;
23384;SDS011;11865;45.394;10.978;2023-05-10T02:53:11;5.97;;;4.60;;
23384;SDS011;11865;45.394;10.978;2023-05-10T02:55:43;6.63;;;4.35;;
23384;SDS011;11865;45.394;10.978;2023-05-10T02:58:14;9.98;;;5.97;;
23384;SDS011;11865;45.394;10.978;2023-05-10T03:00:41;8.30;;;4.75;;
23384;SDS011;11865;45.394;10.978;2023-05-10T03:03:09;8.30;;;4.80;;
23384;SDS011;11865;45.394;10.978;2023-05-10T03:05:36;7.22;;;5.20;;
23384;SDS011;11865;45.394;10.978;2023-05-10T03:08:04;8.77;;;5.18;;
23384;SDS011;11865;45.394;10.978;2023-05-10T03:10:33;10.98;;;5.60;;
23384;SDS011;11865;45.394;10.978;2023-05-10T03:13:32;8.07;;;4.85;;
23384;SDS011;11865;45.394;10.978;2023-05-10T03:16:16;7.57;;;4.70;;
23384;SDS011;11865;45.394;10.978;2023-05-10T03:19:05;6.95;;;4.90;;
23384;SDS011;11865;45.394;10.978;2023-05-10T03:21:41;6.30;;;5.13;;
23384;SDS011;11865;45.394;10.978;2023-05-10T03:24:10;7.63;;;5.03;;
23384;SDS011;11865;45.394;10.978;2023-05-10T03:26:43;7.95;;;5.28;;
23384;SDS011;11865;45.394;10.978;2023-05-10T03:29:16;7.55;;;5.40;;
23384;SDS011;11865;45.394;10.978;2023-05-10T03:31:44;6.40;;;5.30;;
23384;SDS011;11865;45.394;10.978;2023-05-10T03:34:13;9.45;;;6.18;;
23384;SDS011;11865;45.394;10.978;2023-05-10T03:36:41;11.95;;;6.00;;
23384;SDS011;11865;45.394;10.978;2023-05-10T03:39:08;12.38;;;7.22;;
23384;SDS011;11865;45.394;10.978;2023-05-10T03:41:37;9.88;;;6.18;;
23384;SDS011;11865;45.394;10.978;2023-05-10T03:44:04;12.30;;;6.68;;
23384;SDS011;11865;45.394;10.978;2023-05-10T03:46:32;11.43;;;6.07;;
23384;SDS011;11865;45.394;10.978;2023-05-10T03:49:00;7.82;;;6.00;;
23384;SDS011;11865;45.394;10.978;2023-05-10T03:51:27;11.80;;;6.15;;
23384;SDS011;11865;45.394;10.978;2023-05-10T03:53:55;11.43;;;5.88;;
23384;SDS011;11865;45.394;10.978;2023-05-10T03:56:22;8.38;;;6.00;;
23384;SDS011;11865;45.394;10.978;2023-05-10T03:58:50;12.73;;;6.18;;
23384;SDS011;11865;45.394;10.978;2023-05-10T04:01:17;11.45;;;5.50;;
23384;SDS011;11865;45.394;10.978;2023-05-10T04:03:46;8.68;;;5.63;;
23384;SDS011;11865;45.394;10.978;2023-05-10T04:06:13;12.18;;;6.50;;
23384;SDS011;11865;45.394;10.978;2023-05-10T04:08:41;9.30;;;6.22;;
23384;SDS011;11865;45.394;10.978;2023-05-10T04:11:09;12.30;;;7.32;;
23384;SDS011;11865;45.394;10.978;2023-05-10T04:13:38;9.10;;;5.80;;
23384;SDS011;11865;45.394;10.978;2023-05-10T04:16:05;7.70;;;5.45;;
23384;SDS011;11865;45.394;10.978;2023-05-10T04:18:33;10.95;;;6.20;;
23384;SDS011;11865;45.394;10.978;2023-05-10T04:21:00;8.13;;;5.38;;
23384;SDS011;11865;45.394;10.978;2023-05-10T04:23:28;11.82;;;6.28;;
23384;SDS011;11865;45.394;10.978;2023-05-10T04:25:59;7.43;;;5.50;;
23384;SDS011;11865;45.394;10.978;2023-05-10T04:28:27;14.25;;;5.95;;
23384;SDS011;11865;45.394;10.978;2023-05-10T04:31:05;9.18;;;5.68;;
23384;SDS011;11865;45.394;10.978;2023-05-10T04:33:34;9.15;;;5.70;;
23384;SDS011;11865;45.394;10.978;2023-05-10T04:36:02;10.43;;;6.95;;
23384;SDS011;11865;45.394;10.978;2023-05-10T04:38:30;17.08;;;6.95;;
23384;SDS011;11865;45.394;10.978;2023-05-10T04:41:07;10.23;;;6.25;;
23384;SDS011;11865;45.394;10.978;2023-05-10T04:43:35;9.35;;;6.10;;
23384;SDS011;11865;45.394;10.978;2023-05-10T04:46:04;11.60;;;5.55;;
23384;SDS011;11865;45.394;10.978;2023-05-10T04:48:32;11.20;;;6.22;;
23384;SDS011;11865;45.394;10.978;2023-05-10T04:51:00;8.45;;;5.88;;
23384;SDS011;11865;45.394;10.978;2023-05-10T04:53:28;7.53;;;6.43;;
23384;SDS011;11865;45.394;10.978;2023-05-10T04:55:55;8.25;;;6.32;;
23384;SDS011;11865;45.394;10.978;2023-05-10T04:58:22;10.30;;;7.10;;
23384;SDS011;11865;45.394;10.978;2023-05-10T05:00:50;11.65;;;6.25;;
23384;SDS011;11865;45.394;10.978;2023-05-10T05:03:17;14.20;;;6.47;;
23384;SDS011;11865;45.394;10.978;2023-05-10T05:05:45;9.80;;;6.28;;
23384;SDS011;11865;45.394;10.978;2023-05-10T05:08:12;9.70;;;6.50;;
23384;SDS011;11865;45.394;10.978;2023-05-10T05:10:40;10.77;;;6.70;;
23384;SDS011;11865;45.394;10.978;2023-05-10T05:13:07;11.93;;;7.40;;
23384;SDS011;11865;45.394;10.978;2023-05-10T05:15:35;12.27;;;7.00;;
23384;SDS011;11865;45.394;10.978;2023-05-10T05:18:02;10.30;;;6.53;;
23384;SDS011;11865;45.394;10.978;2023-05-10T05:20:31;10.50;;;5.75;;
23384;SDS011;11865;45.394;10.978;2023-05-10T05:23:00;11.27;;;6.85;;
23384;SDS011;11865;45.394;10.978;2023-05-10T05:25:28;11.35;;;7.15;;
23384;SDS011;11865;45.394;10.978;2023-05-10T05:27:55;10.25;;;7.22;;
23384;SDS011;11865;45.394;10.978;2023-05-10T05:30:23;10.45;;;7.78;;
23384;SDS011;11865;45.394;10.978;2023-05-10T05:32:50;10.50;;;7.30;;
23384;SDS011;11865;45.394;10.978;2023-05-10T05:35:18;8.32;;;6.75;;
23384;SDS011;11865;45.394;10.978;2023-05-10T05:37:45;11.52;;;7.20;;
23384;SDS011;11865;45.394;10.978;2023-05-10T05:40:13;8.35;;;5.57;;
23384;SDS011;11865;45.394;10.978;2023-05-10T05:42:40;8.63;;;5.97;;
23384;SDS011;11865;45.394;10.978;2023-05-10T05:45:08;11.48;;;6.18;;
23384;SDS011;11865;45.394;10.978;2023-05-10T05:47:40;12.48;;;5.70;;
23384;SDS011;11865;45.394;10.978;2023-05-10T05:50:07;12.38;;;5.88;;
23384;SDS011;11865;45.394;10.978;2023-05-10T05:52:35;8.50;;;4.75;;
23384;SDS011;11865;45.394;10.978;2023-05-10T05:55:03;8.43;;;4.85;;
23384;SDS011;11865;45.394;10.978;2023-05-10T05:57:30;6.60;;;4.85;;
23384;SDS011;11865;45.394;10.978;2023-05-10T05:59:58;6.90;;;4.55;;
23384;SDS011;11865;45.394;10.978;2023-05-10T06:02:26;6.18;;;5.03;;
23384;SDS011;11865;45.394;10.978;2023-05-10T06:04:53;6.60;;;5.03;;
23384;SDS011;11865;45.394;10.978;2023-05-10T06:07:21;8.75;;;4.60;;
23384;SDS011;11865;45.394;10.978;2023-05-10T06:09:48;8.65;;;4.60;;
23384;SDS011;11865;45.394;10.978;2023-05-10T06:12:16;8.10;;;4.45;;
23384;SDS011;11865;45.394;10.978;2023-05-10T06:14:43;9.02;;;4.35;;
23384;SDS011;11865;45.394;10.978;2023-05-10T06:17:10;10.20;;;4.35;;
23384;SDS011;11865;45.394;10.978;2023-05-10T06:19:38;5.40;;;3.72;;
23384;SDS011;11865;45.394;10.978;2023-05-10T06:22:05;6.28;;;4.07;;
23384;SDS011;11865;45.394;10.978;2023-05-10T06:24:33;7.30;;;4.00;;
23384;SDS011;11865;45.394;10.978;2023-05-10T06:27:00;7.00;;;3.58;;
23384;SDS011;11865;45.394;10.978;2023-05-10T06:29:29;7.43;;;3.78;;
23384;SDS011;11865;45.394;10.978;2023-05-10T06:31:56;6.10;;;3.75;;
23384;SDS011;11865;45.394;10.978;2023-05-10T06:34:24;9.05;;;4.47;;
23384;SDS011;11865;45.394;10.978;2023-05-10T06:36:51;8.48;;;3.45;;
23384;SDS011;11865;45.394;10.978;2023-05-10T06:39:19;7.20;;;3.47;;
23384;SDS011;11865;45.394;10.978;2023-05-10T06:41:46;6.78;;;3.60;;
23384;SDS011;11865;45.394;10.978;2023-05-10T06:44:14;11.20;;;3.83;;
23384;SDS011;11865;45.394;10.978;2023-05-10T06:46:41;5.15;;;3.95;;
23384;SDS011;11865;45.394;10.978;2023-05-10T06:49:09;5.72;;;4.18;;
23384;SDS011;11865;45.394;10.978;2023-05-10T06:51:36;13.30;;;4.55;;
23384;SDS011;11865;45.394;10.978;2023-05-10T06:54:04;6.68;;;3.50;;
23384;SDS011;11865;45.394;10.978;2023-05-10T06:56:31;7.78;;;4.35;;
23384;SDS011;11865;45.394;10.978;2023-05-10T06:58:59;7.85;;;4.55;;
23384;SDS011;11865;45.394;10.978;2023-05-10T07:01:26;6.32;;;4.25;;
23384;SDS011;11865;45.394;10.978;2023-05-10T07:03:54;5.05;;;3.75;;
23384;SDS011;11865;45.394;10.978;2023-05-10T07:06:21;8.13;;;4.40;;
23384;SDS011;11865;45.394;10.978;2023-05-10T07:08:59;7.60;;;4.07;;
23384;SDS011;11865;45.394;10.978;2023-05-10T07:11:27;6.53;;;4.40;;
23384;SDS011;11865;45.394;10.978;2023-05-10T07:13:55;5.88;;;4.30;;
23384;SDS011;11865;45.394;10.978;2023-05-10T07:16:22;5.90;;;4.30;;
23384;SDS011;11865;45.394;10.978;2023-05-10T07:18:49;9.10;;;5.07;;
23384;SDS011;11865;45.394;10.978;2023-05-10T07:21:17;11.05;;;5.10;;
23384;SDS011;11865;45.394;10.978;2023-05-10T07:23:44;6.15;;;4.72;;
23384;SDS011;11865;45.394;10.978;2023-05-10T07:26:12;7.82;;;4.80;;
23384;SDS011;11865;45.394;10.978;2023-05-10T07:28:41;10.82;;;4.88;;
23384;SDS011;11865;45.394;10.978;2023-05-10T07:31:09;7.90;;;4.60;;
23384;SDS011;11865;45.394;10.978;2023-05-10T07:33:36;6.00;;;5.10;;
23384;SDS011;11865;45.394;10.978;2023-05-10T07:36:04;8.18;;;4.68;;
23384;SDS011;11865;45.394;10.978;2023-05-10T07:38:31;6.10;;;4.47;;
23384;SDS011;11865;45.394;10.978;2023-05-10T07:40:59;10.70;;;5.07;;
23384;SDS011;11865;45.394;10.978;2023-05-10T07:43:26;13.38;;;5.45;;
23384;SDS011;11865;45.394;10.978;2023-05-10T07:45:53;5.90;;;4.45;;
23384;SDS011;11865;45.394;10.978;2023-05-10T07:48:22;6.93;;;4.80;;
23384;SDS011;11865;45.394;10.978;2023-05-10T07:50:49;6.95;;;4.85;;
23384;SDS011;11865;45.394;10.978;2023-05-10T07:53:17;8.88;;;4.50;;
23384;SDS011;11865;45.394;10.978;2023-05-10T07:55:49;11.77;;;5.65;;
23384;SDS011;11865;45.394;10.978;2023-05-10T08:00:45;15.63;;;5.97;;
23384;SDS011;11865;45.394;10.978;2023-05-10T08:03:12;10.32;;;6.18;;
23384;SDS011;11865;45.394;10.978;2023-05-10T08:05:40;7.03;;;5.03;;
23384;SDS011;11865;45.394;10.978;2023-05-10T08:08:07;12.82;;;5.63;;
23384;SDS011;11865;45.394;10.978;2023-05-10T08:10:35;9.27;;;5.60;;
23384;SDS011;11865;45.394;10.978;2023-05-10T08:13:02;14.40;;;5.35;;
23384;SDS011;11865;45.394;10.978;2023-05-10T08:15:30;7.78;;;4.85;;
23384;SDS011;11865;45.394;10.978;2023-05-10T08:17:57;8.30;;;5.30;;
23384;SDS011;11865;45.394;10.978;2023-05-10T08:20:24;7.13;;;4.90;;
23384;SDS011;11865;45.394;10.978;2023-05-10T08:22:52;9.57;;;5.38;;
23384;SDS011;11865;45.394;10.978;2023-05-10T08:25:20;9.30;;;5.53;;
23384;SDS011;11865;45.394;10.978;2023-05-10T08:27:48;10.40;;;5.72;;
23384;SDS011;11865;45.394;10.978;2023-05-10T08:30:16;12.02;;;5.03;;
23384;SDS011;11865;45.394;10.978;2023-05-10T08:32:44;12.18;;;4.93;;
23384;SDS011;11865;45.394;10.978;2023-05-10T08:35:11;9.70;;;4.38;;
23384;SDS011;11865;45.394;10.978;2023-05-10T08:37:39;8.45;;;5.40;;
23384;SDS011;11865;45.394;10.978;2023-05-10T08:40:06;7.40;;;4.50;;
23384;SDS011;11865;45.394;10.978;2023-05-10T08:42:36;11.18;;;4.13;;
23384;SDS011;11865;45.394;10.978;2023-05-10T08:45:07;7.18;;;4.10;;
23384;SDS011;11865;45.394;10.978;2023-05-10T08:47:36;5.13;;;4.10;;
23384;SDS011;11865;45.394;10.978;2023-05-10T08:50:06;7.57;;;4.55;;
23384;SDS011;11865;45.394;10.978;2023-05-10T08:52:34;11.48;;;5.20;;
23384;SDS011;11865;45.394;10.978;2023-05-10T08:55:03;9.35;;;5.10;;
23384;SDS011;11865;45.394;10.978;2023-05-10T08:57:31;6.80;;;5.00;;
23384;SDS011;11865;45.394;10.978;2023-05-10T09:00:00;9.82;;;5.00;;
23384;SDS011;11865;45.394;10.978;2023-05-10T09:02:28;7.50;;;4.72;;
23384;SDS011;11865;45.394;10.978;2023-05-10T09:04:55;7.20;;;5.10;;
23384;SDS011;11865;45.394;10.978;2023-05-10T09:07:23;7.82;;;4.75;;
23384;SDS011;11865;45.394;10.978;2023-05-10T09:09:51;10.68;;;5.53;;
23384;SDS011;11865;45.394;10.978;2023-05-10T09:12:20;7.63;;;4.80;;
23384;SDS011;11865;45.394;10.978;2023-05-10T09:14:47;5.32;;;3.72;;
23384;SDS011;11865;45.394;10.978;2023-05-10T09:17:17;9.23;;;5.60;;
23384;SDS011;11865;45.394;10.978;2023-05-10T09:33:46;9.13;;;4.85;;
23384;SDS011;11865;45.394;10.978;2023-05-10T09:36:16;10.90;;;5.07;;
23384;SDS011;11865;45.394;10.978;2023-05-10T09:38:51;5.40;;;4.25;;
23384;SDS011;11865;45.394;10.978;2023-05-10T09:41:20;7.68;;;5.07;;
23384;SDS011;11865;45.394;10.978;2023-05-10T09:43:49;11.65;;;5.50;;
23384;SDS011;11865;45.394;10.978;2023-05-10T09:46:21;8.07;;;5.93;;
23384;SDS011;11865;45.394;10.978;2023-05-10T09:48:49;9.00;;;5.15;;
23384;SDS011;11865;45.394;10.978;2023-05-10T09:51:20;11.38;;;5.82;;
23384;SDS011;11865;45.394;10.978;2023-05-10T09:53:50;13.13;;;5.53;;
23384;SDS011;11865;45.394;10.978;2023-05-10T09:56:39;8.95;;;4.72;;
23384;SDS011;11865;45.394;10.978;2023-05-10T09:59:11;7.25;;;5.20;;
23384;SDS011;11865;45.394;10.978;2023-05-10T10:01:39;7.22;;;5.03;;
23384;SDS011;11865;45.394;10.978;2023-05-10T10:04:08;13.50;;;6.00;;
23384;SDS011;11865;45.394;10.978;2023-05-10T10:06:37;10.88;;;5.57;;
23384;SDS011;11865;45.394;10.978;2023-05-10T10:09:05;6.57;;;4.97;;
23384;SDS011;11865;45.394;10.978;2023-05-10T10:11:34;11.43;;;5.10;;
23384;SDS011;11865;45.394;10.978;2023-05-10T10:14:03;10.30;;;5.63;;
23384;SDS011;11865;45.394;10.978;2023-05-10T10:16:32;7.55;;;4.95;;
23384;SDS011;11865;45.394;10.978;2023-05-10T10:18:59;7.25;;;4.82;;
23384;SDS011;11865;45.394;10.978;2023-05-10T10:21:27;11.13;;;4.93;;
23384;SDS011;11865;45.394;10.978;2023-05-10T10:23:55;17.02;;;5.43;;
23384;SDS011;11865;45.394;10.978;2023-05-10T10:26:23;13.10;;;5.45;;
23384;SDS011;11865;45.394;10.978;2023-05-10T10:28:56;6.22;;;3.92;;
23384;SDS011;11865;45.394;10.978;2023-05-10T10:31:51;8.15;;;4.50;;
23384;SDS011;11865;45.394;10.978;2023-05-10T10:34:34;7.57;;;5.03;;
23384;SDS011;11865;45.394;10.978;2023-05-10T10:37:05;10.15;;;4.70;;
23384;SDS011;11865;45.394;10.978;2023-05-10T10:39:33;7.47;;;4.22;;
23384;SDS011;11865;45.394;10.978;2023-05-10T10:42:03;10.90;;;4.78;;
23384;SDS011;11865;45.394;10.978;2023-05-10T10:49:49;8.63;;;4.78;;
23384;SDS011;11865;45.394;10.978;2023-05-10T10:52:23;6.97;;;4.57;;
23384;SDS011;11865;45.394;10.978;2023-05-10T10:55:00;12.50;;;5.30;;
23384;SDS011;11865;45.394;10.978;2023-05-10T10:57:55;7.18;;;5.18;;
23384;SDS011;11865;45.394;10.978;2023-05-10T11:00:32;9.18;;;5.57;;
23384;SDS011;11865;45.394;10.978;2023-05-10T11:03:11;9.95;;;5.07;;
23384;SDS011;11865;45.394;10.978;2023-05-10T11:05:48;8.68;;;4.85;;
23384;SDS011;11865;45.394;10.978;2023-05-10T11:08:31;7.32;;;5.03;;
23384;SDS011;11865;45.394;10.978;2023-05-10T11:11:04;8.18;;;4.43;;
23384;SDS011;11865;45.394;10.978;2023-05-10T11:13:46;6.22;;;4.28;;
23384;SDS011;11865;45.394;10.978;2023-05-10T11:16:21;7.77;;;4.30;;
23384;SDS011;11865;45.394;10.978;2023-05-10T11:19:03;13.18;;;4.90;;
23384;SDS011;11865;45.394;10.978;2023-05-10T11:24:15;6.20;;;4.53;;
23384;SDS011;11865;45.394;10.978;2023-05-10T11:26:44;6.22;;;4.32;;
23384;SDS011;11865;45.394;10.978;2023-05-10T11:29:12;6.07;;;4.30;;
23384;SDS011;11865;45.394;10.978;2023-05-10T11:31:44;8.75;;;5.00;;
23384;SDS011;11865;45.394;10.978;2023-05-10T11:34:22;8.83;;;4.87;;
23384;SDS011;11865;45.394;10.978;2023-05-10T11:36:51;9.07;;;4.75;;
23384;SDS011;11865;45.394;10.978;2023-05-10T11:39:21;9.63;;;5.20;;
23384;SDS011;11865;45.394;10.978;2023-05-10T11:41:52;10.02;;;4.47;;
23384;SDS011;11865;45.394;10.978;2023-05-10T11:44:19;11.40;;;4.90;;
23384;SDS011;11865;45.394;10.978;2023-05-10T11:46:47;8.75;;;4.57;;
23384;SDS011;11865;45.394;10.978;2023-05-10T11:49:16;8.35;;;5.05;;
23384;SDS011;11865;45.394;10.978;2023-05-10T11:51:44;9.00;;;5.20;;
23384;SDS011;11865;45.394;10.978;2023-05-10T11:54:13;10.35;;;5.05;;
23384;SDS011;11865;45.394;10.978;2023-05-10T11:56:40;8.73;;;5.07;;
23384;SDS011;11865;45.394;10.978;2023-05-10T11:59:08;8.43;;;4.70;;
23384;SDS011;11865;45.394;10.978;2023-05-10T12:01:35;4.72;;;3.60;;
23384;SDS011;11865;45.394;10.978;2023-05-10T12:04:03;6.07;;;3.72;;
23384;SDS011;11865;45.394;10.978;2023-05-10T12:06:31;7.95;;;3.90;;
23384;SDS011;11865;45.394;10.978;2023-05-10T12:09:06;10.75;;;4.18;;
23384;SDS011;11865;45.394;10.978;2023-05-10T12:11:39;7.13;;;4.38;;
23384;SDS011;11865;45.394;10.978;2023-05-10T12:14:10;11.65;;;5.85;;
23384;SDS011;11865;45.394;10.978;2023-05-10T12:16:38;14.85;;;5.22;;
23384;SDS011;11865;45.394;10.978;2023-05-10T12:19:05;11.00;;;4.40;;
23384;SDS011;11865;45.394;10.978;2023-05-10T12:21:33;6.75;;;4.50;;
23384;SDS011;11865;45.394;10.978;2023-05-10T12:24:03;8.25;;;3.85;;
23384;SDS011;11865;45.394;10.978;2023-05-10T12:26:34;7.55;;;3.90;;
23384;SDS011;11865;45.394;10.978;2023-05-10T12:29:16;7.88;;;4.22;;
23384;SDS011;11865;45.394;10.978;2023-05-10T12:31:53;5.80;;;3.50;;
23384;SDS011;11865;45.394;10.978;2023-05-10T12:36:53;11.85;;;5.97;;
23384;SDS011;11865;45.394;10.978;2023-05-10T12:39:22;13.27;;;6.32;;
23384;SDS011;11865;45.394;10.978;2023-05-10T12:41:50;11.85;;;5.47;;
23384;SDS011;11865;45.394;10.978;2023-05-10T12:44:18;10.38;;;5.68;;
23384;SDS011;11865;45.394;10.978;2023-05-10T12:46:45;11.20;;;5.53;;
23384;SDS011;11865;45.394;10.978;2023-05-10T12:49:13;10.15;;;5.60;;
23384;SDS011;11865;45.394;10.978;2023-05-10T12:51:40;11.13;;;5.57;;
23384;SDS011;11865;45.394;10.978;2023-05-10T12:54:08;12.75;;;4.43;;
23384;SDS011;11865;45.394;10.978;2023-05-10T12:56:35;8.48;;;4.53;;
23384;SDS011;11865;45.394;10.978;2023-05-10T12:59:03;9.48;;;4.78;;
23384;SDS011;11865;45.394;10.978;2023-05-10T13:01:31;10.38;;;5.10;;
23384;SDS011;11865;45.394;10.978;2023-05-10T13:03:59;6.68;;;4.18;;
23384;SDS011;11865;45.394;10.978;2023-05-10T13:06:27;8.68;;;4.28;;
23384;SDS011;11865;45.394;10.978;2023-05-10T13:08:54;5.85;;;3.55;;
23384;SDS011;11865;45.394;10.978;2023-05-10T13:11:21;6.57;;;4.47;;
23384;SDS011;11865;45.394;10.978;2023-05-10T13:13:49;6.25;;;3.92;;
23384;SDS011;11865;45.394;10.978;2023-05-10T13:16:16;6.88;;;3.75;;
23384;SDS011;11865;45.394;10.978;2023-05-10T13:18:44;8.70;;;3.97;;
23384;SDS011;11865;45.394;10.978;2023-05-10T13:21:11;6.22;;;3.85;;
23384;SDS011;11865;45.394;10.978;2023-05-10T13:23:39;6.97;;;4.38;;
23384;SDS011;11865;45.394;10.978;2023-05-10T13:26:06;4.95;;;3.65;;
23384;SDS011;11865;45.394;10.978;2023-05-10T13:28:34;9.05;;;4.30;;
23384;SDS011;11865;45.394;10.978;2023-05-10T13:31:01;6.70;;;3.55;;
23384;SDS011;11865;45.394;10.978;2023-05-10T13:33:29;6.78;;;4.50;;
23384;SDS011;11865;45.394;10.978;2023-05-10T13:35:56;9.18;;;4.22;;
23384;SDS011;11865;45.394;10.978;2023-05-10T13:38:24;10.90;;;3.95;;
23384;SDS011;11865;45.394;10.978;2023-05-10T13:40:51;6.88;;;3.88;;
23384;SDS011;11865;45.394;10.978;2023-05-10T13:43:19;11.68;;;6.05;;
23384;SDS011;11865;45.394;10.978;2023-05-10T13:45:47;5.18;;;4.00;;
23384;SDS011;11865;45.394;10.978;2023-05-10T13:48:14;7.10;;;4.32;;
23384;SDS011;11865;45.394;10.978;2023-05-10T13:50:42;9.93;;;5.78;;
23384;SDS011;11865;45.394;10.978;2023-05-10T13:53:10;7.93;;;4.40;;
23384;SDS011;11865;45.394;10.978;2023-05-10T13:55:37;9.15;;;4.55;;
23384;SDS011;11865;45.394;10.978;2023-05-10T13:58:05;12.52;;;4.88;;
23384;SDS011;11865;45.394;10.978;2023-05-10T14:00:32;5.00;;;3.78;;
23384;SDS011;11865;45.394;10.978;2023-05-10T14:03:00;8.60;;;4.65;;
23384;SDS011;11865;45.394;10.978;2023-05-10T14:05:28;8.35;;;4.22;;
23384;SDS011;11865;45.394;10.978;2023-05-10T14:07:55;13.35;;;4.60;;
23384;SDS011;11865;45.394;10.978;2023-05-10T14:10:23;9.65;;;4.20;;
23384;SDS011;11865;45.394;10.978;2023-05-10T14:12:51;6.72;;;4.03;;
23384;SDS011;11865;45.394;10.978;2023-05-10T14:15:19;8.90;;;4.30;;
23384;SDS011;11865;45.394;10.978;2023-05-10T14:17:46;12.95;;;4.95;;
23384;SDS011;11865;45.394;10.978;2023-05-10T14:20:14;7.10;;;4.25;;
23384;SDS011;11865;45.394;10.978;2023-05-10T14:22:42;4.05;;;3.50;;
23384;SDS011;11865;45.394;10.978;2023-05-10T14:25:09;7.90;;;5.10;;
23384;SDS011;11865;45.394;10.978;2023-05-10T14:27:38;6.57;;;4.00;;
23384;SDS011;11865;45.394;10.978;2023-05-10T14:30:05;7.30;;;4.43;;
23384;SDS011;11865;45.394;10.978;2023-05-10T14:32:33;9.75;;;4.88;;
23384;SDS011;11865;45.394;10.978;2023-05-10T14:35:03;6.78;;;3.40;;
23384;SDS011;11865;45.394;10.978;2023-05-10T14:37:31;7.32;;;3.97;;
23384;SDS011;11865;45.394;10.978;2023-05-10T14:39:59;11.25;;;4.10;;
23384;SDS011;11865;45.394;10.978;2023-05-10T14:42:26;7.80;;;4.00;;
23384;SDS011;11865;45.394;10.978;2023-05-10T14:44:53;8.82;;;4.15;;
23384;SDS011;11865;45.394;10.978;2023-05-10T14:47:21;6.80;;;3.90;;
23384;SDS011;11865;45.394;10.978;2023-05-10T14:49:48;5.10;;;3.90;;
23384;SDS011;11865;45.394;10.978;2023-05-10T14:52:16;8.65;;;3.70;;
23384;SDS011;11865;45.394;10.978;2023-05-10T14:54:44;5.45;;;3.88;;
23384;SDS011;11865;45.394;10.978;2023-05-10T14:57:11;5.43;;;3.78;;
23384;SDS011;11865;45.394;10.978;2023-05-10T14:59:39;9.77;;;4.30;;
23384;SDS011;11865;45.394;10.978;2023-05-10T15:02:07;7.22;;;4.10;;
23384;SDS011;11865;45.394;10.978;2023-05-10T15:04:35;6.47;;;4.68;;
23384;SDS011;11865;45.394;10.978;2023-05-10T15:07:03;7.13;;;4.13;;
23384;SDS011;11865;45.394;10.978;2023-05-10T15:09:31;7.20;;;4.20;;
23384;SDS011;11865;45.394;10.978;2023-05-10T15:11:58;7.20;;;4.20;;
23384;SDS011;11865;45.394;10.978;2023-05-10T15:14:26;6.15;;;4.55;;
23384;SDS011;11865;45.394;10.978;2023-05-10T15:16:54;7.93;;;4.50;;
23384;SDS011;11865;45.394;10.978;2023-05-10T15:19:21;7.90;;;4.47;;
23384;SDS011;11865;45.394;10.978;2023-05-10T15:21:49;5.95;;;4.60;;
23384;SDS011;11865;45.394;10.978;2023-05-10T15:24:17;7.22;;;4.60;;